Time;durP1;ratioP1;P1;durP2;ratioP2;P2;SDS_P1;SDS_P2;PMS_P1;PMS_P2;Temp;Humidity;BMP_temperature;BMP_pressure;BME280_temperature;BME280_humidity;BME280_pressure;Samples;Min_cycle;Max_cycle;Signal;HPM_P1;HPM_P2
2022/10/06 00:01:58;;;;;;;6.57;2.10;;;;;13.60;94888.00;;;;7398631;19;20140;-79
2022/10/06 00:04:26;;;;;;;3.58;1.83;;;;;13.50;94890.00;;;;7399166;19;20161;-79
2022/10/06 00:06:54;;;;;;;2.58;2.03;;;;;13.50;94885.00;;;;7398206;19;20516;-79
2022/10/06 00:09:27;;;;;;;1.65;1.50;;;;;13.30;94886.00;;;;7399162;19;20168;-79
2022/10/06 00:11:55;;;;;;;7.78;2.45;;;;;13.10;94895.00;;;;7398717;19;20621;-79
2022/10/06 00:14:22;;;;;;;4.65;1.92;;;;;13.10;94904.00;;;;7398263;19;20603;-79
2022/10/06 00:16:56;;;;;;;3.33;1.73;;;;;13.00;94908.00;;;;7398960;19;20136;-78
2022/10/06 00:19:24;;;;;;;9.35;2.00;;;;;12.70;94897.00;;;;7399032;19;20145;-78
2022/10/06 00:21:52;;;;;;;6.80;2.05;;;;;12.60;94914.00;;;;7394737;19;20135;-78
2022/10/06 00:24:26;;;;;;;6.68;2.00;;;;;12.60;94907.00;;;;7398693;19;20116;-77
2022/10/06 00:26:57;;;;;;;4.80;1.75;;;;;12.60;94914.00;;;;7398309;19;20140;-78
2022/10/06 00:29:24;;;;;;;4.03;1.90;;;;;12.40;94911.00;;;;7397217;19;20157;-78
2022/10/06 00:31:58;;;;;;;6.25;1.88;;;;;12.50;94900.00;;;;7399210;19;20136;-79
2022/10/06 00:34:26;;;;;;;5.60;1.77;;;;;12.80;94906.00;;;;7398028;19;20140;-79
2022/10/06 00:36:53;;;;;;;6.70;2.10;;;;;12.80;94910.00;;;;7394951;19;20196;-79
2022/10/06 00:39:27;;;;;;;4.45;2.00;;;;;13.00;94919.00;;;;7397710;19;20144;-79
2022/10/06 00:42:08;;;;;;;8.80;2.08;;;;;12.90;94915.00;;;;7395613;19;20204;-78
2022/10/06 00:44:47;;;;;;;3.13;1.83;;;;;12.90;94919.00;;;;7396249;19;20179;-78
2022/10/06 00:47:14;;;;;;;6.35;2.20;;;;;12.80;94924.00;;;;7396431;19;20486;-79
2022/10/06 00:49:44;;;;;;;9.25;1.80;;;;;13.00;94927.00;;;;7397083;19;20192;-77
2022/10/06 00:52:21;;;;;;;2.33;1.67;;;;;13.00;94929.00;;;;7396680;19;20141;-78
2022/10/06 00:54:49;;;;;;;5.40;2.00;;;;;13.40;94930.00;;;;7396589;19;20845;-79
2022/10/06 00:57:19;;;;;;;6.38;2.20;;;;;13.60;94930.00;;;;7399828;19;20165;-77
2022/10/06 00:59:53;;;;;;;6.40;2.13;;;;;13.50;94937.00;;;;7399497;19;20200;-78
2022/10/06 01:02:26;;;;;;;5.38;2.03;;;;;13.40;94941.00;;;;7395344;19;20600;-78
2022/10/06 01:05:02;;;;;;;5.53;1.83;;;;;13.20;94941.00;;;;7398872;19;20600;-80
2022/10/06 01:07:30;;;;;;;8.35;1.77;;;;;13.50;94942.00;;;;7398097;19;20143;-79
2022/10/06 01:09:57;;;;;;;4.97;1.90;;;;;13.60;94935.00;;;;7395870;19;20137;-78
2022/10/06 01:12:33;;;;;;;7.97;2.00;;;;;13.50;94937.00;;;;7397693;19;20646;-79
2022/10/06 01:15:00;;;;;;;3.40;1.98;;;;;13.50;94947.00;;;;7396251;19;20133;-77
2022/10/06 01:17:42;;;;;;;3.80;2.00;;;;;13.60;94938.00;;;;7396549;19;20133;-78
2022/10/06 01:20:18;;;;;;;9.15;2.20;;;;;13.90;94938.00;;;;7395368;19;20604;-78
2022/10/06 01:22:56;;;;;;;4.75;2.40;;;;;14.00;94940.00;;;;7393883;19;20141;-79
2022/10/06 01:25:33;;;;;;;3.85;2.10;;;;;14.00;94948.00;;;;7395779;19;20133;-79
2022/10/06 01:28:07;;;;;;;2.08;1.70;;;;;14.10;94947.00;;;;7396637;19;20157;-78
2022/10/06 01:30:51;;;;;;;3.38;1.80;;;;;14.40;94950.00;;;;7397335;19;20713;-79
2022/10/06 01:33:20;;;;;;;4.60;2.13;;;;;14.70;94954.00;;;;7396953;19;20169;-79
2022/10/06 01:35:55;;;;;;;3.10;1.90;;;;;14.70;94959.00;;;;7395669;19;20151;-79
2022/10/06 01:38:25;;;;;;;4.05;1.80;;;;;14.60;94955.00;;;;7396374;19;20596;-79
2022/10/06 01:40:53;;;;;;;5.20;1.83;;;;;14.60;94950.00;;;;7395464;19;20628;-80
2022/10/06 01:43:38;;;;;;;4.20;2.03;;;;;14.70;94951.00;;;;7395590;19;20169;-78
2022/10/06 01:46:07;;;;;;;3.13;1.90;;;;;14.50;94953.00;;;;7394947;19;20124;-78
2022/10/06 01:48:42;;;;;;;3.60;1.95;;;;;14.30;94950.00;;;;7394807;19;20162;-78
2022/10/06 01:51:17;;;;;;;2.70;1.80;;;;;14.30;94951.00;;;;7393235;19;20277;-79
2022/10/06 01:53:51;;;;;;;6.20;1.85;;;;;14.20;94957.00;;;;7393171;19;20151;-79
2022/10/06 01:56:19;;;;;;;3.80;2.10;;;;;14.10;94957.00;;;;7397068;19;20135;-78
2022/10/06 01:58:47;;;;;;;5.38;2.42;;;;;14.00;94965.00;;;;7393736;19;20502;-79
2022/10/06 02:01:22;;;;;;;4.93;2.00;;;;;14.10;94958.00;;;;7392563;19;20137;-78
2022/10/06 02:03:50;;;;;;;3.03;2.10;;;;;14.20;94956.00;;;;7394890;19;20139;-79
2022/10/06 02:06:17;;;;;;;5.78;2.10;;;;;14.50;94967.00;;;;7393009;19;20125;-79
2022/10/06 02:08:54;;;;;;;3.30;2.10;;;;;14.40;94961.00;;;;7391458;19;20136;-78
2022/10/06 02:11:23;;;;;;;4.07;2.13;;;;;14.30;94965.00;;;;7392950;19;20139;-78
2022/10/06 02:13:51;;;;;;;4.90;2.40;;;;;14.30;94965.00;;;;7390283;19;20207;-79
2022/10/06 02:16:27;;;;;;;3.50;2.20;;;;;14.40;94967.00;;;;7392395;19;20137;-79
2022/10/06 02:18:54;;;;;;;3.35;2.13;;;;;14.60;94983.00;;;;7394097;19;20148;-79
2022/10/06 02:21:22;;;;;;;4.78;2.45;;;;;14.40;94976.00;;;;7392881;19;20176;-80
2022/10/06 02:24:00;;;;;;;4.57;2.50;;;;;14.60;94983.00;;;;7394584;19;20133;-79
2022/10/06 02:26:28;;;;;;;3.45;2.30;;;;;14.50;94990.00;;;;7398689;19;20149;-79
2022/10/06 02:28:57;;;;;;;6.32;2.58;;;;;14.60;94990.00;;;;7398136;19;20141;-79
2022/10/06 02:31:33;;;;;;;4.05;2.60;;;;;14.50;94986.00;;;;7400864;19;20125;-79
2022/10/06 02:34:01;;;;;;;8.02;2.67;;;;;14.40;94988.00;;;;7398754;19;20154;-79
2022/10/06 02:36:28;;;;;;;6.55;2.75;;;;;14.20;94981.00;;;;7395680;19;20133;-79
2022/10/06 02:39:03;;;;;;;4.15;2.35;;;;;14.20;94994.00;;;;7395589;19;20136;-78
2022/10/06 02:41:37;;;;;;;4.25;2.30;;;;;14.10;94993.00;;;;7391657;19;20179;-78
2022/10/06 02:44:22;;;;;;;5.93;2.42;;;;;14.20;94996.00;;;;7392859;19;20145;-79
2022/10/06 02:46:50;;;;;;;5.15;2.20;;;;;14.00;94996.00;;;;7391175;19;20647;-79
2022/10/06 02:49:24;;;;;;;4.53;2.45;;;;;14.20;95004.00;;;;7393925;19;20154;-79
2022/10/06 02:51:52;;;;;;;6.80;2.45;;;;;14.50;95014.00;;;;7393545;19;20220;-79
2022/10/06 02:54:19;;;;;;;5.28;2.33;;;;;14.40;95016.00;;;;7393504;19;20200;-79
2022/10/06 02:56:54;;;;;;;6.47;2.35;;;;;14.70;95027.00;;;;7393402;19;20137;-79
2022/10/06 02:59:24;;;;;;;4.32;2.47;;;;;14.70;95035.00;;;;7404881;19;20156;-82
2022/10/06 03:31:43;;;;;;;7.47;3.28;;;;;14.40;95073.00;;;;7337689;19;20148;31
2022/10/06 03:49:00;;;;;;;5.60;3.60;;;;;14.40;95109.00;;;;7340554;19;20130;-79
2022/10/06 03:54:46;;;;;;;7.90;3.58;;;;;14.20;95121.00;;;;7337921;19;20224;-80
2022/10/06 04:10:21;;;;;;;9.88;3.95;;;;;14.30;95110.00;;;;7402578;19;20187;-81
2022/10/06 04:12:58;;;;;;;8.73;3.58;;;;;14.20;95121.00;;;;7413273;19;20172;-81
2022/10/06 04:15:32;;;;;;;10.95;3.70;;;;;14.20;95121.00;;;;7414870;19;20179;-79
2022/10/06 04:18:04;;;;;;;7.28;3.67;;;;;14.20;95126.00;;;;7415215;19;20142;-82
2022/10/06 04:20:32;;;;;;;7.93;3.78;;;;;14.20;95125.00;;;;7413667;19;20155;-80
2022/10/06 04:23:06;;;;;;;7.93;3.97;;;;;14.20;95125.00;;;;7404068;19;20790;-80
2022/10/06 04:25:34;;;;;;;10.05;4.00;;;;;14.10;95129.00;;;;7408724;19;20142;-81
2022/10/06 04:28:04;;;;;;;5.28;3.60;;;;;14.00;95131.00;;;;7397769;19;20621;-79
2022/10/06 04:30:41;;;;;;;7.00;3.50;;;;;14.00;95131.00;;;;7404276;19;20250;-81
2022/10/06 04:33:10;;;;;;;8.40;3.33;;;;;14.00;95142.00;;;;7405648;19;20618;-79
2022/10/06 04:35:37;;;;;;;7.32;3.65;;;;;14.00;95138.00;;;;7399188;19;20498;-79
2022/10/06 04:38:13;;;;;;;8.75;3.40;;;;;14.00;95139.00;;;;7399965;19;20125;-80
2022/10/06 04:40:43;;;;;;;5.20;3.50;;;;;14.00;95146.00;;;;7405702;19;20157;-78
2022/10/06 04:43:11;;;;;;;6.18;3.97;;;;;14.00;95148.00;;;;7396608;19;20145;-82
2022/10/06 04:45:46;;;;;;;6.68;3.70;;;;;13.90;95159.00;;;;7404640;19;20142;-79
2022/10/06 04:51:20;;;;;;;8.25;3.58;;;;;14.10;95153.00;;;;7409680;19;20160;-81
2022/10/06 05:02:26;;;;;;;7.40;3.72;;;;;13.90;95168.00;;;;7348811;19;20235;-80
2022/10/06 05:08:26;;;;;;;11.10;4.00;;;;;13.90;95181.00;;;;7374422;19;20188;-82
2022/10/06 05:39:06;;;;;;;9.38;4.40;;;;;13.10;95226.00;;;;7642363;18;20200;-80
2022/10/06 05:41:45;;;;;;;9.05;4.15;;;;;13.10;95225.00;;;;7428301;19;20145;-78
2022/10/06 05:44:36;;;;;;;6.57;3.75;;;;;13.00;95231.00;;;;7391383;19;20196;-80
2022/10/06 05:47:19;;;;;;;9.77;3.35;;;;;12.90;95219.00;;;;7412802;19;20159;-80
2022/10/06 05:49:46;;;;;;;4.43;3.33;;;;;13.00;95228.00;;;;7404099;19;20133;-79
2022/10/06 05:52:23;;;;;;;7.85;3.28;;;;;12.90;95225.00;;;;7405948;19;20131;-78
2022/10/06 05:54:53;;;;;;;6.25;3.00;;;;;13.00;95223.00;;;;7414057;19;20140;-80
2022/10/06 05:57:21;;;;;;;8.13;2.70;;;;;12.90;95224.00;;;;7418621;19;20133;-80
2022/10/06 05:59:55;;;;;;;6.20;2.53;;;;;12.80;95224.00;;;;7418450;19;20133;-80
2022/10/06 06:02:24;;;;;;;4.53;2.63;;;;;12.80;95215.00;;;;7422887;19;20133;-78
2022/10/06 06:04:57;;;;;;;6.18;2.25;;;;;12.90;95227.00;;;;7422660;19;20137;-80
2022/10/06 06:07:33;;;;;;;6.40;2.35;;;;;12.90;95219.00;;;;7397023;19;20141;-78
2022/10/06 06:10:00;;;;;;;2.97;1.85;;;;;13.10;95220.00;;;;7399272;19;20466;-80
2022/10/06 06:12:28;;;;;;;10.82;2.47;;;;;12.90;95223.00;;;;7398060;19;20173;-77
2022/10/06 06:17:49;;;;;;;5.22;2.00;;;;;12.80;95221.00;;;;7403270;19;20125;-78
2022/10/06 06:20:24;;;;;;;3.35;2.00;;;;;12.70;95233.00;;;;7397617;19;20207;-77
2022/10/06 06:22:52;;;;;;;4.72;1.75;;;;;12.60;95236.00;;;;7402625;19;20188;-80
2022/10/06 06:25:20;;;;;;;4.75;2.03;;;;;12.60;95236.00;;;;7401380;19;20642;-79
2022/10/06 06:27:54;;;;;;;5.78;2.33;;;;;12.60;95248.00;;;;7406605;19;20160;-79
2022/10/06 06:30:23;;;;;;;6.35;2.10;;;;;12.50;95246.00;;;;7400688;19;20154;-78
2022/10/06 06:32:54;;;;;;;2.35;1.70;;;;;12.40;95257.00;;;;7398222;19;20646;-79
2022/10/06 06:35:30;;;;;;;9.32;2.38;;;;;12.60;95258.00;;;;7411031;19;20128;-82
2022/10/06 06:37:58;;;;;;;5.30;2.30;;;;;12.80;95250.00;;;;7416094;19;20137;-80
2022/10/06 06:40:26;;;;;;;4.18;2.00;;;;;12.90;95257.00;;;;7410012;19;20141;-80
2022/10/06 06:43:00;;;;;;;2.92;2.03;;;;;13.10;95264.00;;;;7402216;19;20149;-82
2022/10/06 06:45:34;;;;;;;7.15;2.28;;;;;13.50;95262.00;;;;7396597;19;20183;-79
2022/10/06 06:48:14;;;;;;;4.78;2.28;;;;;13.30;95267.00;;;;7409720;19;20136;-82
2022/10/06 06:50:43;;;;;;;1.73;1.50;;;;;13.50;95273.00;;;;7414293;19;20187;-80
2022/10/06 06:53:18;;;;;;;5.68;1.90;;;;;13.60;95272.00;;;;7404009;19;20149;-80
2022/10/06 06:55:50;;;;;;;6.55;2.10;;;;;13.60;95268.00;;;;7398330;19;20168;-80
2022/10/06 06:58:24;;;;;;;6.20;2.10;;;;;13.90;95286.00;;;;7401123;19;20152;-80
2022/10/06 07:00:52;;;;;;;5.72;1.60;;;;;14.20;95292.00;;;;7403388;19;20151;-80
2022/10/06 07:03:21;;;;;;;3.63;1.70;;;;;14.20;95301.00;;;;7406712;19;20120;-81
2022/10/06 07:06:15;;;;;;;6.82;1.90;;;;;14.60;95306.00;;;;7400925;19;20170;-80
2022/10/06 07:08:45;;;;;;;4.60;1.80;;;;;14.40;95302.00;;;;7408246;19;20157;-81
2022/10/06 07:11:21;;;;;;;4.32;1.65;;;;;14.60;95310.00;;;;7400741;19;20152;-79
2022/10/06 07:13:54;;;;;;;6.63;1.70;;;;;14.40;95311.00;;;;7391031;19;20192;-79
2022/10/06 07:25:10;;;;;;;5.30;1.70;;;;;13.30;95325.00;;;;7389819;19;20668;-79
2022/10/06 07:27:54;;;;;;;4.05;1.98;;;;;13.10;95332.00;;;;7394406;19;20200;-79
2022/10/06 07:30:29;;;;;;;4.07;1.80;;;;;13.30;95332.00;;;;7395109;19;20145;-79
2022/10/06 07:33:08;;;;;;;6.03;1.80;;;;;13.30;95328.00;;;;7398455;19;20462;-79
2022/10/06 07:35:40;;;;;;;3.05;1.50;;;;;13.50;95330.00;;;;7394613;19;20129;-81
2022/10/06 07:38:15;;;;;;;3.83;1.80;;;;;13.60;95325.00;;;;7397904;19;20129;-78
2022/10/06 07:40:44;;;;;;;7.63;1.83;;;;;13.40;95329.00;;;;7395920;19;20616;-79
2022/10/06 07:43:16;;;;;;;3.97;1.80;;;;;13.40;95327.00;;;;7395220;19;20133;-80
2022/10/06 07:45:57;;;;;;;5.22;1.83;;;;;13.40;95317.00;;;;7393656;19;20164;-78
2022/10/06 07:48:25;;;;;;;6.10;2.10;;;;;13.50;95325.00;;;;7401028;19;20151;-79
2022/10/06 07:50:59;;;;;;;6.55;1.83;;;;;13.60;95323.00;;;;7397568;19;20117;-78
2022/10/06 07:53:29;;;;;;;4.63;1.50;;;;;13.60;95330.00;;;;7400134;19;20153;-79
2022/10/06 07:56:04;;;;;;;8.02;1.48;;;;;13.80;95336.00;;;;7398622;19;20149;-79
2022/10/06 07:58:39;;;;;;;9.07;2.10;;;;;13.80;95336.00;;;;7398178;19;20158;-78
2022/10/06 08:01:09;;;;;;;7.57;1.90;;;;;13.70;95342.00;;;;7397327;19;20632;-79
2022/10/06 08:03:38;;;;;;;2.75;1.52;;;;;13.60;95352.00;;;;7396748;19;20157;-79
2022/10/06 08:06:15;;;;;;;6.93;1.65;;;;;13.60;95345.00;;;;7397173;19;20155;-78
2022/10/06 08:08:44;;;;;;;5.55;1.55;;;;;13.90;95352.00;;;;7398106;19;20169;-78
2022/10/06 08:11:18;;;;;;;3.15;1.23;;;;;13.80;95346.00;;;;7397444;19;20156;-78
2022/10/06 08:13:52;;;;;;;6.80;1.83;;;;;14.10;95359.00;;;;7395379;19;20179;-78
2022/10/06 08:16:28;;;;;;;5.65;1.70;;;;;14.20;95357.00;;;;7403124;19;20161;-78
2022/10/06 08:19:03;;;;;;;4.90;1.23;;;;;14.40;95353.00;;;;7397898;19;20136;-78
2022/10/06 08:21:34;;;;;;;5.22;1.50;;;;;14.40;95360.00;;;;7396934;19;20145;-79
2022/10/06 08:24:02;;;;;;;6.28;1.40;;;;;14.50;95354.00;;;;7396637;19;20209;-78
2022/10/06 08:26:36;;;;;;;5.25;1.58;;;;;14.40;95359.00;;;;7402906;19;20631;-77
2022/10/06 08:29:06;;;;;;;2.35;1.35;;;;;14.30;95364.00;;;;7394199;19;20129;-80
2022/10/06 08:31:33;;;;;;;7.32;1.85;;;;;13.90;95366.00;;;;7407086;19;20149;-79
2022/10/06 08:34:09;;;;;;;5.10;1.40;;;;;13.80;95380.00;;;;7398187;19;20157;-77
2022/10/06 08:36:38;;;;;;;3.25;1.35;;;;;14.10;95384.00;;;;7402923;19;20192;-78
2022/10/06 08:39:23;;;;;;;3.33;1.30;;;;;14.30;95376.00;;;;7397979;19;20612;-77
2022/10/06 08:41:57;;;;;;;4.55;1.25;;;;;14.30;95374.00;;;;7397980;19;20632;-78
2022/10/06 08:45:05;;;;;;;4.43;1.55;;;;;14.40;95379.00;;;;7398063;19;20588;-79
2022/10/06 08:48:12;;;;;;;5.10;1.60;;;;;14.60;95379.00;;;;7396367;19;20600;-77
2022/10/06 08:51:20;;;;;;;7.13;1.50;;;;;14.70;95371.00;;;;7393577;19;20156;-78
2022/10/06 08:54:20;;;;;;;5.18;1.75;;;;;14.80;95384.00;;;;7396252;19;20149;-79
2022/10/06 08:57:02;;;;;;;5.13;1.45;;;;;14.90;95379.00;;;;7397016;19;20141;-78
2022/10/06 08:59:36;;;;;;;5.20;1.55;;;;;15.30;95382.00;;;;7395434;19;20136;-78
2022/10/06 09:02:41;;;;;;;3.65;1.40;;;;;15.30;95368.00;;;;7398459;19;20504;-79
2022/10/06 09:05:24;;;;;;;10.20;1.60;;;;;15.80;95370.00;;;;7397111;19;20165;-78
2022/10/06 09:08:04;;;;;;;7.63;1.65;;;;;15.70;95385.00;;;;7403467;19;20144;-79
2022/10/06 09:11:01;;;;;;;4.32;1.60;;;;;15.20;95390.00;;;;7401558;19;20571;-81
2022/10/06 09:13:52;;;;;;;5.63;1.55;;;;;15.00;95391.00;;;;7400624;19;20137;-78
2022/10/06 09:16:37;;;;;;;7.50;1.35;;;;;15.10;95390.00;;;;7412313;19;20152;-78
2022/10/06 09:19:12;;;;;;;4.32;1.33;;;;;15.20;95392.00;;;;7412157;19;20132;-81
2022/10/06 09:21:50;;;;;;;4.57;1.63;;;;;15.70;95390.00;;;;7404466;19;20626;-79
2022/10/06 09:24:26;;;;;;;6.60;1.50;;;;;15.50;95402.00;;;;7402963;19;20148;-81
2022/10/06 09:27:11;;;;;;;8.90;1.90;;;;;15.40;95406.00;;;;7408166;19;20144;-78
2022/10/06 09:29:50;;;;;;;5.88;1.77;;;;;15.10;95416.00;;;;7376662;19;20161;-79
2022/10/06 09:32:27;;;;;;;5.32;1.70;;;;;14.80;95427.00;;;;7409805;19;20611;-80
2022/10/06 09:35:03;;;;;;;5.25;1.67;;;;;14.70;95423.00;;;;7411676;19;20136;-80
2022/10/06 09:38:03;;;;;;;7.32;1.65;;;;;14.60;95423.00;;;;7423040;19;20125;-78
2022/10/06 09:40:50;;;;;;;8.55;1.73;;;;;14.50;95424.00;;;;7427642;19;20144;-80
2022/10/06 09:43:37;;;;;;;3.95;1.30;;;;;14.20;95432.00;;;;7421500;19;20140;-79
2022/10/06 09:46:46;;;;;;;7.43;1.40;;;;;14.30;95435.00;;;;7398845;19;20203;-78
2022/10/06 09:49:23;;;;;;;8.15;1.52;;;;;14.30;95435.00;;;;7415470;19;20124;-79
2022/10/06 09:51:59;;;;;;;6.57;1.73;;;;;13.90;95430.00;;;;7407194;19;20136;-78
2022/10/06 09:54:33;;;;;;;11.20;1.58;;;;;14.10;95442.00;;;;7405058;19;20145;-80
2022/10/06 09:57:24;;;;;;;8.75;1.73;;;;;14.10;95434.00;;;;7407519;19;20176;-80
2022/10/06 10:00:03;;;;;;;5.60;1.58;;;;;14.10;95441.00;;;;7407393;19;20148;-78
2022/10/06 10:02:39;;;;;;;9.10;1.98;;;;;14.20;95434.00;;;;7419322;19;20133;-80
2022/10/06 10:05:19;;;;;;;7.38;1.67;;;;;14.50;95439.00;;;;7419168;19;20162;-78
2022/10/06 10:08:24;;;;;;;7.18;1.73;;;;;14.20;95442.00;;;;7407798;19;20219;-79
2022/10/06 10:14:19;;;;;;;3.92;1.35;;;;;14.20;95452.00;;;;7425302;19;20144;-80
2022/10/06 10:17:22;;;;;;;8.75;1.88;;;;;14.10;95445.00;;;;7425403;19;20153;-80
2022/10/06 10:23:24;;;;;;;6.20;1.60;;;;;14.10;95441.00;;;;7410729;19;20225;-81
2022/10/06 10:26:47;;;;;;;4.53;1.73;;;;;14.30;95437.00;;;;7402636;19;20192;-81
2022/10/06 10:29:48;;;;;;;6.78;2.08;;;;;14.50;95436.00;;;;7407733;19;20623;-79
2022/10/06 10:32:36;;;;;;;11.10;1.45;;;;;14.80;95430.00;;;;7407910;19;20144;-81
2022/10/06 10:35:30;;;;;;;7.18;1.80;;;;;14.90;95434.00;;;;7409261;19;20497;-81
2022/10/06 10:38:14;;;;;;;4.78;1.65;;;;;15.30;95431.00;;;;7422463;19;20128;-82
2022/10/06 10:41:01;;;;;;;5.93;1.60;;;;;15.70;95431.00;;;;7420181;19;20142;-81
2022/10/06 10:43:39;;;;;;;4.43;1.40;;;;;15.70;95430.00;;;;7410329;19;20216;-78
2022/10/06 10:46:38;;;;;;;5.82;1.50;;;;;16.10;95426.00;;;;7421720;19;20150;-78
2022/10/06 10:52:16;;;;;;;5.53;1.42;;;;;15.80;95430.00;;;;7358831;19;20188;-77
2022/10/06 10:55:10;;;;;;;5.65;1.55;;;;;16.00;95428.00;;;;7424229;19;20161;-81
2022/10/06 11:10:57;;;;;;;6.47;1.70;;;;;16.50;95422.00;;;;7338872;19;20183;-79
2022/10/06 11:13:51;;;;;;;6.68;1.48;;;;;16.50;95423.00;;;;7396572;19;20711;-83
2022/10/06 11:16:50;;;;;;;4.43;1.33;;;;;16.20;95422.00;;;;7395623;19;20135;-80
2022/10/06 11:19:53;;;;;;;4.68;1.50;;;;;16.10;95417.00;;;;7401046;19;20157;-81
2022/10/06 11:22:41;;;;;;;7.00;1.60;;;;;16.80;95422.00;;;;7399838;19;20243;-83
2022/10/06 11:25:36;;;;;;;5.10;1.40;;;;;16.60;95420.00;;;;7399447;19;20189;-82
2022/10/06 11:28:40;;;;;;;11.75;1.73;;;;;16.60;95414.00;;;;7400113;19;20125;-82
2022/10/06 11:31:18;;;;;;;4.38;1.20;;;;;16.60;95413.00;;;;7404107;19;20149;-83
2022/10/06 11:33:53;;;;;;;5.95;1.50;;;;;16.30;95412.00;;;;7403441;19;20531;-83
2022/10/06 11:36:57;;;;;;;4.20;1.48;;;;;16.40;95414.00;;;;7404093;19;20148;-82
2022/10/06 11:39:58;;;;;;;7.50;1.95;;;;;16.50;95418.00;;;;7399466;19;20510;-83
2022/10/06 11:49:42;;;;;;;4.68;1.42;;;;;15.90;95417.00;;;;7378301;19;20191;-82
2022/10/06 11:52:17;;;;;;;6.05;1.60;;;;;16.20;95414.00;;;;7428279;19;20149;-78
2022/10/06 11:54:53;;;;;;;5.13;1.67;;;;;16.10;95411.00;;;;7425273;19;20133;-80
2022/10/06 11:57:32;;;;;;;6.50;2.10;;;;;15.70;95414.00;;;;7423560;19;20169;-79
2022/10/06 12:00:17;;;;;;;10.10;1.83;;;;;15.60;95411.00;;;;7418911;19;20214;-81
2022/10/06 12:03:15;;;;;;;7.72;2.17;;;;;15.90;95412.00;;;;7432898;19;20136;-81
2022/10/06 12:05:50;;;;;;;7.50;1.90;;;;;15.90;95411.00;;;;7387387;19;20216;-80
2022/10/06 12:08:45;;;;;;;5.13;1.80;;;;;16.10;95406.00;;;;7421532;19;20570;-81
2022/10/06 12:15:12;;;;;;;9.93;1.83;;;;;15.70;95394.00;;;;7402025;19;20212;-79
2022/10/06 12:18:18;;;;;;;4.45;1.75;;;;;15.60;95398.00;;;;7379998;19;20188;-79
2022/10/06 12:21:05;;;;;;;8.02;2.00;;;;;15.90;95396.00;;;;7423226;19;20128;-76
2022/10/06 12:24:02;;;;;;;5.65;1.77;;;;;16.40;95395.00;;;;7419687;19;20135;-81
2022/10/06 12:26:53;;;;;;;11.20;2.03;;;;;16.40;95393.00;;;;7401513;19;20149;-82
2022/10/06 12:29:41;;;;;;;8.50;1.90;;;;;16.40;95385.00;;;;7402475;19;20141;-82
2022/10/06 12:32:37;;;;;;;6.93;1.70;;;;;16.40;95391.00;;;;7396533;19;20639;-82
2022/10/06 12:35:34;;;;;;;8.65;1.88;;;;;16.30;95388.00;;;;7408192;19;20570;-81
2022/10/06 12:38:30;;;;;;;9.52;1.88;;;;;16.40;95387.00;;;;7414813;19;20620;-82
2022/10/06 12:40:58;;;;;;;5.38;1.80;;;;;16.60;95388.00;;;;7403276;19;20161;-81
2022/10/06 12:44:04;;;;;;;7.72;1.75;;;;;16.80;95385.00;;;;7398280;19;20169;-81
2022/10/06 12:46:40;;;;;;;8.00;2.28;;;;;17.00;95384.00;;;;7394650;19;20156;-84
2022/10/06 12:49:35;;;;;;;7.30;1.90;;;;;17.30;95368.00;;;;7394212;19;20184;-83
2022/10/06 12:52:44;;;;;;;11.90;2.20;;;;;17.50;95380.00;;;;7396606;19;20148;-83
2022/10/06 12:55:42;;;;;;;7.53;2.00;;;;;17.10;95380.00;;;;7394174;19;20133;-83
2022/10/06 12:58:27;;;;;;;4.85;1.73;;;;;16.80;95387.00;;;;7395663;19;20628;-80
2022/10/06 13:01:04;;;;;;;6.03;1.90;;;;;16.90;95377.00;;;;7394770;19;20641;-81
2022/10/06 13:03:33;;;;;;;3.80;1.50;;;;;16.50;95380.00;;;;7392437;19;20590;-81
2022/10/06 13:06:03;;;;;;;9.43;2.00;;;;;16.70;95380.00;;;;7395229;19;20200;-80
2022/10/06 13:08:38;;;;;;;5.60;2.13;;;;;16.80;95381.00;;;;7395890;19;20145;-84
2022/10/06 13:11:20;;;;;;;5.15;2.35;;;;;16.80;95380.00;;;;7393135;19;20129;-80
2022/10/06 13:14:00;;;;;;;8.32;1.60;;;;;16.50;95378.00;;;;7392012;19;20258;-82
2022/10/06 13:16:31;;;;;;;6.25;1.80;;;;;16.70;95388.00;;;;7395007;19;20212;-81
2022/10/06 13:19:25;;;;;;;6.10;2.05;;;;;16.30;95384.00;;;;7394443;19;20588;-81
2022/10/06 13:21:53;;;;;;;6.93;1.73;;;;;16.40;95387.00;;;;7397024;19;20183;-79
2022/10/06 13:24:28;;;;;;;9.40;1.90;;;;;16.10;95390.00;;;;7394556;19;20608;-80
2022/10/06 13:26:55;;;;;;;5.10;1.88;;;;;16.10;95388.00;;;;7392135;19;20140;-80
2022/10/06 13:29:25;;;;;;;8.25;1.60;;;;;15.90;95383.00;;;;7393735;19;20165;-79
2022/10/06 13:32:00;;;;;;;5.03;1.80;;;;;15.70;95379.00;;;;7395790;19;20600;-81
2022/10/06 13:34:46;;;;;;;4.18;1.85;;;;;15.80;95384.00;;;;7393186;19;20180;-78
2022/10/06 13:37:20;;;;;;;7.88;1.75;;;;;15.60;95386.00;;;;7404721;19;20771;-81
2022/10/06 13:39:48;;;;;;;8.77;1.70;;;;;15.50;95386.00;;;;7410144;19;20141;-78
2022/10/06 13:42:20;;;;;;;8.38;1.92;;;;;15.70;95389.00;;;;7415586;19;20170;-79
2022/10/06 13:44:59;;;;;;;4.82;1.67;;;;;15.80;95384.00;;;;7396631;19;20152;-80
2022/10/06 13:47:28;;;;;;;7.28;1.98;;;;;15.60;95392.00;;;;7394696;19;20557;-78
2022/10/06 13:50:11;;;;;;;10.73;2.45;;;;;15.50;95393.00;;;;7395566;19;20164;-78
2022/10/06 13:52:47;;;;;;;10.90;2.90;;;;;15.40;95380.00;;;;7397558;19;20152;-81
2022/10/06 13:55:28;;;;;;;8.35;2.33;;;;;15.50;95384.00;;;;7394078;19;20133;-79
2022/10/06 13:58:01;;;;;;;7.95;2.03;;;;;15.40;95387.00;;;;7392272;19;20604;-79
2022/10/06 14:00:55;;;;;;;6.63;2.13;;;;;15.60;95382.00;;;;7401323;19;20153;-78
2022/10/06 14:03:24;;;;;;;6.28;2.05;;;;;15.60;95377.00;;;;7407415;19;20157;-81
2022/10/06 14:06:16;;;;;;;6.88;1.67;;;;;15.60;95378.00;;;;7410747;19;20461;-80
2022/10/06 14:08:53;;;;;;;6.05;1.90;;;;;15.60;95385.00;;;;7409626;19;20149;-79
2022/10/06 14:11:29;;;;;;;5.30;1.85;;;;;15.50;95381.00;;;;7406190;19;20140;-79
2022/10/06 14:14:05;;;;;;;9.93;1.80;;;;;15.40;95378.00;;;;7397704;19;20152;-78
2022/10/06 14:16:46;;;;;;;10.10;2.22;;;;;15.50;95374.00;;;;7398721;19;20140;-79
2022/10/06 14:19:35;;;;;;;11.60;2.03;;;;;15.50;95374.00;;;;7394227;19;20146;-80
2022/10/06 14:22:37;;;;;;;9.10;2.22;;;;;15.50;95368.00;;;;7395902;19;20486;-79
2022/10/06 14:25:21;;;;;;;6.07;2.08;;;;;15.70;95371.00;;;;7389850;19;20560;-78
2022/10/06 14:28:02;;;;;;;7.60;1.80;;;;;15.70;95371.00;;;;7391494;19;20165;-79
2022/10/06 14:30:32;;;;;;;5.10;1.80;;;;;15.70;95375.00;;;;7393163;19;20259;-79
2022/10/06 14:33:20;;;;;;;9.13;2.17;;;;;15.80;95364.00;;;;7394525;19;20166;-80
2022/10/06 14:35:55;;;;;;;5.78;1.75;;;;;15.60;95364.00;;;;7394215;19;20169;-80
2022/10/06 14:38:29;;;;;;;10.20;2.00;;;;;15.60;95371.00;;;;7393596;19;20157;-79
2022/10/06 14:41:01;;;;;;;4.57;1.70;;;;;15.60;95367.00;;;;7393133;19;20162;-80
2022/10/06 14:43:29;;;;;;;5.65;1.50;;;;;15.40;95363.00;;;;7393191;19;20139;-79
2022/10/06 14:46:04;;;;;;;6.55;1.88;;;;;15.40;95367.00;;;;7393402;19;20140;-79
2022/10/06 14:48:32;;;;;;;8.95;2.17;;;;;15.50;95362.00;;;;7392051;19;20140;-79
2022/10/06 14:51:03;;;;;;;6.60;1.70;;;;;15.40;95361.00;;;;7392547;19;20296;-79
2022/10/06 14:53:38;;;;;;;9.80;2.03;;;;;15.20;95367.00;;;;7393325;19;20144;-79
2022/10/06 14:56:13;;;;;;;6.47;2.20;;;;;15.10;95361.00;;;;7391102;19;20145;-79
2022/10/06 14:58:50;;;;;;;10.38;1.88;;;;;15.10;95364.00;;;;7392408;19;20148;-78
2022/10/06 15:01:23;;;;;;;6.07;1.70;;;;;15.20;95358.00;;;;7391001;19;20163;-78
2022/10/06 15:04:03;;;;;;;4.80;1.80;;;;;14.80;95363.00;;;;7391727;19;20162;-79
2022/10/06 15:09:23;;;;;;;6.15;1.60;;;;;14.90;95361.00;;;;7390533;19;20727;-79
2022/10/06 15:11:51;;;;;;;7.43;1.58;;;;;14.90;95357.00;;;;7391255;19;20173;-79
2022/10/06 15:14:21;;;;;;;5.90;1.77;;;;;15.00;95349.00;;;;7394312;19;20144;-79
2022/10/06 15:17:00;;;;;;;5.97;2.22;;;;;15.10;95342.00;;;;7393505;19;20547;-80
2022/10/06 15:19:29;;;;;;;10.13;2.17;;;;;15.10;95348.00;;;;7393629;19;20125;-80
2022/10/06 15:22:05;;;;;;;7.55;1.63;;;;;15.20;95346.00;;;;7394717;19;20180;-79
2022/10/06 15:24:32;;;;;;;6.75;1.70;;;;;15.20;95344.00;;;;7391133;19;20598;-80
2022/10/06 15:29:57;;;;;;;5.22;1.50;;;;;15.00;95339.00;;;;7389140;19;20193;-79
2022/10/06 15:32:28;;;;;;;4.70;1.70;;;;;14.90;95338.00;;;;7389822;19;20138;-79
2022/10/06 15:34:56;;;;;;;2.92;1.48;;;;;14.90;95337.00;;;;7387374;19;20629;-80
2022/10/06 15:37:31;;;;;;;4.00;1.70;;;;;14.80;95335.00;;;;7389484;19;20133;-80
2022/10/06 15:40:00;;;;;;;7.95;2.05;;;;;14.80;95340.00;;;;7389924;19;20146;-80
2022/10/06 15:42:31;;;;;;;8.85;1.77;;;;;14.80;95331.00;;;;7388796;19;20144;-80